SV2HRW-13 Weather Reports


Display with metric or nautical units.
time (UTC)temp
F
wind
direction
speed
MPH
gust
MPH
rain 1hr
in
rain 24hr
in
rain mn
in
humidity
%
barometer
mb
20220630051007 71 135 0.0 0.0 0.00 0.00 0.00 70 1013.5
20220630050007 69 135 0.0 0.0 0.00 0.00 0.00 71 1013.5
20220630045008 67 135 0.0 0.0 0.00 0.00 0.00 73 1013.5
20220630044008 66 135 0.0 0.0 0.00 0.00 0.00 74 1013.5
20220630043008 65 135 0.0 0.0 0.00 0.00 0.00 74 1013.3
20220630042007 65 135 0.0 0.0 0.00 0.00 0.00 73 1013.4
20220630041007 65 90 0.0 0.0 0.00 0.00 0.00 73 1013.3
20220630040007 65 180 0.0 1.0 0.00 0.00 0.00 72 1013.3
20220630035007 64 135 0.0 1.0 0.00 0.00 0.00 71 1013.2
20220630034007 64 135 1.0 1.0 0.00 0.01 0.00 70 1013.2
20220630033009 64 135 1.0 1.0 0.00 0.01 0.00 70 1013.2
20220630032008 64 135 1.0 1.0 0.00 0.01 0.00 70 1013.0
20220630031008 64 135 0.0 1.0 0.00 0.01 0.00 70 1013.3
20220630030008 64 180 1.0 2.0 0.00 0.01 0.00 69 1013.1
20220630025008 64 135 1.0 1.0 0.00 0.01 0.00 70 1013.1
20220630024008 64 135 1.0 1.0 0.00 0.01 0.00 69 1013.2
20220630023007 64 135 0.0 0.0 0.00 0.01 0.00 69 1013.2
20220630022007 64 93 1.0 1.0 0.00 0.01 0.00 69 1013.3
20220630021007 65 135 1.0 1.0 0.00 0.01 0.00 68 1013.2
20220630020007 65 180 0.0 1.0 0.00 0.01 0.00 68 1013.2
20220630015009 65 180 0.0 1.0 0.00 0.01 0.00 67 1013.4
20220630014009 65 135 1.0 1.0 0.00 0.01 0.00 68 1013.3
20220630013009 65 135 1.0 1.0 0.00 0.01 0.00 68 1013.4
20220630012008 65 135 1.0 1.0 0.00 0.01 0.00 68 1013.5
20220630011008 65 135 0.0 1.0 0.00 0.01 0.00 67 1013.5
20220630010008 65 177 1.0 1.0 0.00 0.01 0.00 67 1013.5
20220630005008 65 135 0.0 1.0 0.00 0.01 0.00 68 1013.6
20220630004008 65 180 0.0 1.0 0.00 0.01 0.00 69 1013.5
20220630003008 65 140 1.0 1.0 0.00 0.01 0.00 68 1013.7
20220630002007 65 135 1.0 1.0 0.00 0.01 0.00 69 1013.8
20220630001008 65 135 1.0 1.0 0.00 0.01 0.00 69 1013.7
20220630000009 65 180 0.0 1.0 0.00 0.01 0.00 68 1013.7
20220629235008 65 132 1.0 1.0 0.00 0.01 0.00 69 1013.8
20220629234009 65 135 0.0 1.0 0.00 0.01 0.00 69 1013.8
20220629233008 65 135 0.0 1.0 0.00 0.01 0.00 69 1013.7
20220629232008 65 135 0.0 0.0 0.00 0.01 0.00 68 1013.7
20220629231009 66 135 0.0 1.0 0.00 0.01 0.00 68 1013.9
20220629230008 66 180 1.0 1.0 0.00 0.01 0.00 68 1013.9
20220629225008 66 135 1.0 1.0 0.00 0.01 0.00 68 1014.0
20220629224009 66 135 1.0 1.0 0.00 0.01 0.00 68 1014.1
20220629223009 66 135 0.0 0.0 0.00 0.02 0.00 68 1013.9
20220629222008 66 180 0.0 1.0 0.00 0.04 0.00 69 1014.0
20220629221008 65 200 2.0 3.0 0.00 0.06 0.00 70 1014.0
20220629220009 65 180 0.0 0.0 0.00 0.06 0.00 70 1014.2
20220629215008 66 180 0.0 1.0 0.00 0.06 0.00 68 1014.3
20220629214008 66 135 1.0 1.0 0.00 0.06 0.00 68 1014.3
20220629213009 66 135 0.0 1.0 0.00 0.06 0.00 67 1014.2
20220629212009 66 135 1.0 1.0 0.00 0.06 0.00 67 1014.3
20220629211008 67 135 0.0 1.0 0.00 0.06 0.00 66 1014.3
20220629210009 67 175 1.0 1.0 0.00 0.08 0.00 65 1014.3
20220629205009 67 177 1.0 1.0 0.00 0.08 0.08 64 1014.6
20220629204008 67 225 1.0 2.0 0.00 0.09 0.08 63 1014.2
20220629203009 67 180 1.0 1.0 0.00 0.09 0.08 64 1014.6
20220629202008 67 225 3.0 3.0 0.00 0.09 0.08 64 1014.4
20220629200007 67 180 0.0 1.0 0.00 0.11 0.08 63 1014.3
20220629195006 67 135 0.0 0.0 0.00 0.11 0.08 63 1014.2
20220629194005 68 135 0.0 1.0 0.00 0.11 0.08 62 1014.1
20220629193006 68 135 0.0 1.0 0.00 0.17 0.08 61 1014.1
20220629192005 68 135 0.0 1.0 0.00 0.18 0.08 62 1014.4
20220629191007 68 135 1.0 1.0 0.00 0.18 0.08 61 1014.3
20220629190006 69 135 0.0 1.0 0.00 0.18 0.08 60 1014.3
20220629185005 69 135 1.0 1.0 0.00 0.18 0.08 59 1014.1
20220629184006 70 180 0.0 1.0 0.00 0.18 0.08 59 1014.2
20220629183005 70 180 1.0 1.0 0.00 0.18 0.08 58 1014.1
20220629182006 71 135 1.0 1.0 0.00 0.18 0.08 57 1014.1
20220629181006 72 180 0.0 1.0 0.00 0.18 0.08 55 1014.0
20220629180005 73 138 1.0 1.0 0.00 0.18 0.08 52 1014.0
20220629175007 73 84 1.0 2.0 0.00 0.18 0.08 51 1013.9
20220629174006 74 146 1.0 6.0 0.00 0.18 0.08 50 1013.9
20220629173006 74 180 3.0 6.0 0.00 0.18 0.08 51 1014.1
20220629172007 75 180 3.0 8.0 0.00 0.18 0.08 50 1014.0
20220629171005 75 222 3.0 6.0 0.00 0.18 0.08 50 1014.0
20220629170007 76 184 6.0 8.0 0.00 0.18 0.08 48 1014.5
20220629165006 76 227 7.0 10.0 0.00 0.18 0.08 46 1014.2
20220629164006 77 225 6.0 8.0 0.00 0.18 0.08 45 1014.2
20220629163007 77 225 8.0 10.0 0.00 0.18 0.08 45 1014.2
20220629162006 77 162 7.0 8.0 0.00 0.18 0.08 44 1014.1
20220629161006 77 227 7.0 9.0 0.00 0.18 0.08 45 1014.3
20220629160007 77 221 3.0 6.0 0.00 0.18 0.08 44 1014.2
20220629155007 77 225 9.0 13.0 0.00 0.18 0.08 43 1014.4
20220629154006 78 222 6.0 10.0 0.00 0.18 0.08 43 1014.4
20220629153005 78 230 6.0 10.0 0.00 0.18 0.08 43 1014.5
20220629152007 78 267 9.0 13.0 0.00 0.18 0.08 42 1014.3
20220629151012 79 225 3.0 6.0 0.00 0.18 0.08 44 1014.4
20220629150006 79 183 3.0 6.0 0.00 0.18 0.08 45 1014.6
20220629145007 79 267 6.0 8.0 0.00 0.18 0.08 44 1014.3
20220629144007 79 312 3.0 6.0 0.00 0.18 0.08 44 1014.6
20220629143006 80 312 8.0 10.0 0.00 0.18 0.08 43 1014.8
20220629142007 80 45 2.0 3.0 0.00 0.18 0.08 47 1014.8
20220629141007 79 225 0.0 2.0 0.00 0.18 0.08 47 1014.8
20220629140006 79 228 3.0 6.0 0.00 0.18 0.08 47 1014.8
20220629135007 79 271 3.0 5.0 0.00 0.18 0.08 47 1014.9
20220629134007 78 225 1.0 2.0 0.00 0.18 0.08 52 1015.1
20220629133006 78 2 0.0 1.0 0.00 0.18 0.08 50 1015.0
20220629132008 80 200 3.0 3.0 0.00 0.18 0.08 47 1015.0
20220629131007 80 225 2.0 3.0 0.00 0.18 0.08 46 1015.1
20220629130006 79 319 1.0 2.0 0.00 0.18 0.08 47 1015.1
20220629125006 79 225 3.0 3.0 0.00 0.18 0.08 48 1015.1
20220629124007 77 243 2.0 3.0 0.00 0.18 0.08 52 1015.3
20220629123008 76 180 1.0 2.0 0.00 0.18 0.08 52 1015.0
20220629122006 77 0 1.0 1.0 0.00 0.18 0.08 49 1015.1
20220629121008 78 180 1.0 1.0 0.00 0.18 0.08 47 1015.1
20220629120007 80 0 1.0 3.0 0.00 0.18 0.08 49 1015.2
20220629115005 80 42 2.0 3.0 0.00 0.18 0.08 51 1015.3
20220629114007 79 312 1.0 3.0 0.00 0.18 0.08 52 1015.3
20220629113006 78 270 2.0 3.0 0.00 0.18 0.08 50 1015.2
20220629112005 79 90 1.0 3.0 0.00 0.18 0.08 51 1015.6
20220629111007 78 243 2.0 3.0 0.00 0.18 0.08 50 1015.4
20220629110006 78 92 3.0 3.0 0.00 0.18 0.08 55 1015.7
20220629105006 77 319 0.0 1.0 0.00 0.18 0.08 51 1015.4
20220629104005 77 8 1.0 2.0 0.00 0.18 0.08 60 1015.4
20220629103007 77 132 0.0 1.0 0.00 0.18 0.08 54 1015.6
20220629102006 78 49 1.0 1.0 0.00 0.18 0.08 54 1015.6
20220629101342 78 45 1.0 2.0 0.00 0.18 0.08 59 1015.6
20220629100343 77 0 1.0 1.0 0.00 0.18 0.08 60 1015.6
20220629095806 77 319 0.0 2.0 0.00 0.18 0.08 59 1015.5
20220629094808 76 203 3.0 5.0 0.00 0.18 0.08 58 1015.4
20220629093807 76 48 0.0 1.0 0.00 0.18 0.08 60 1015.7
20220629092807 76 266 1.0 2.0 0.00 0.18 0.08 59 1015.4
20220629091808 76 312 1.0 1.0 0.00 0.18 0.08 61 1015.4
20220629090806 75 326 1.0 5.0 0.00 0.18 0.08 61 1015.6
20220629085808 74 270 3.0 5.0 0.00 0.18 0.08 61 1015.5
20220629084807 74 225 1.0 1.0 0.00 0.18 0.08 61 1015.5
20220629083807 76 247 1.0 2.0 0.00 0.18 0.08 57 1015.5
20220629082816 77 86 0.0 1.0 0.00 0.18 0.08 62 1015.5
20220629081808 76 225 1.0 1.0 0.00 0.18 0.08 55 1015.3
20220629080808 76 129 0.0 3.0 0.00 0.18 0.08 59 1015.5
20220629075807 75 7 1.0 1.0 0.00 0.18 0.08 59 1015.5
20220629074807 74 315 1.0 1.0 0.00 0.18 0.08 60 1015.3
20220629073808 74 225 1.0 2.0 0.00 0.18 0.08 58 1015.2
20220629072808 73 315 1.0 1.0 0.00 0.18 0.08 62 1015.4